Time;durP1;ratioP1;P1;durP2;ratioP2;P2;SDS_P1;SDS_P2;PMS_P1;PMS_P2;Temp;Humidity;BMP_temperature;BMP_pressure;BME280_temperature;BME280_humidity;BME280_pressure;Samples;Min_cycle;Max_cycle;Signal;HPM_P1;HPM_P2
2024/01/27 00:00:40;;;;;;;8.95;4.07;;;5.80;99.90;;;;;;4992595;28;20036;-72
2024/01/27 00:03:05;;;;;;;8.60;4.25;;;5.80;99.90;;;;;;4989678;28;20026;-72
2024/01/27 00:05:31;;;;;;;10.82;3.75;;;5.80;99.90;;;;;;4991631;28;20034;-71
2024/01/27 00:07:57;;;;;;;12.15;4.25;;;5.80;99.90;;;;;;4992885;28;20060;-72
2024/01/27 00:10:22;;;;;;;6.38;3.25;;;5.70;99.90;;;;;;4993459;28;20105;-72
2024/01/27 00:12:48;;;;;;;7.15;3.53;;;5.70;99.90;;;;;;4995740;28;20022;-73
2024/01/27 00:15:13;;;;;;;8.20;4.55;;;5.70;99.90;;;;;;4994331;28;20034;-72
2024/01/27 00:17:39;;;;;;;8.90;3.28;;;5.70;99.90;;;;;;4990930;28;20161;-72
2024/01/27 00:20:06;;;;;;;12.02;4.15;;;5.60;99.90;;;;;;4996437;28;20022;-72
2024/01/27 00:22:31;;;;;;;6.30;3.50;;;5.60;99.90;;;;;;4996004;28;20039;-72
2024/01/27 00:24:57;;;;;;;8.95;3.78;;;5.50;99.90;;;;;;4995765;28;20022;-73
2024/01/27 00:27:23;;;;;;;6.60;3.38;;;5.50;99.90;;;;;;4994981;28;20022;-72
2024/01/27 00:29:48;;;;;;;7.80;3.17;;;5.40;99.90;;;;;;4997943;28;20023;-72
2024/01/27 00:32:14;;;;;;;7.22;2.80;;;5.40;99.90;;;;;;4979829;28;20026;-72
2024/01/27 00:34:39;;;;;;;6.28;2.92;;;5.30;99.90;;;;;;4993445;28;20034;-72
2024/01/27 00:37:05;;;;;;;7.50;3.08;;;5.30;99.90;;;;;;4990803;28;20035;-72
2024/01/27 00:39:32;;;;;;;6.75;2.97;;;5.30;99.90;;;;;;4994767;28;20113;-73
2024/01/27 00:41:58;;;;;;;6.45;3.13;;;5.20;99.90;;;;;;4991541;28;20031;-72
2024/01/27 00:44:24;;;;;;;6.22;3.53;;;5.20;99.90;;;;;;4989124;28;20404;-73
2024/01/27 00:46:50;;;;;;;9.35;3.58;;;5.20;99.90;;;;;;4987261;28;20041;-73
2024/01/27 00:49:15;;;;;;;9.65;3.55;;;5.20;99.90;;;;;;4986565;28;20508;-72
2024/01/27 00:51:41;;;;;;;6.88;2.83;;;5.10;99.90;;;;;;4992587;28;20027;-72
2024/01/27 00:54:06;;;;;;;8.80;3.65;;;5.10;99.90;;;;;;4993466;28;20101;-71
2024/01/27 00:56:32;;;;;;;8.20;3.30;;;5.10;99.90;;;;;;4988110;28;20033;-72
2024/01/27 00:58:57;;;;;;;11.65;2.92;;;5.00;99.90;;;;;;4986283;28;20084;-73
2024/01/27 01:01:23;;;;;;;5.60;2.80;;;5.00;99.90;;;;;;4990371;28;20484;-73
2024/01/27 01:03:49;;;;;;;5.70;2.70;;;4.90;99.90;;;;;;4991710;28;20022;-72
2024/01/27 01:06:14;;;;;;;4.68;2.05;;;4.90;99.90;;;;;;4990402;28;20030;-72
2024/01/27 01:08:40;;;;;;;7.82;2.70;;;4.80;99.90;;;;;;4990168;28;20022;-72
2024/01/27 01:11:05;;;;;;;5.65;2.40;;;4.90;99.90;;;;;;4990466;28;20031;-72
2024/01/27 01:13:31;;;;;;;7.57;2.60;;;4.80;99.90;;;;;;4992201;28;20028;-72
2024/01/27 01:15:56;;;;;;;8.93;2.50;;;4.80;99.90;;;;;;4980811;28;20034;-73
2024/01/27 01:18:22;;;;;;;5.10;2.65;;;4.70;99.90;;;;;;4989120;28;20069;-73
2024/01/27 01:20:48;;;;;;;10.10;2.85;;;4.70;99.90;;;;;;4992089;28;20033;-72
2024/01/27 01:23:13;;;;;;;7.30;2.67;;;4.70;99.90;;;;;;4993019;28;20399;-72
2024/01/27 01:25:39;;;;;;;8.25;2.67;;;4.60;99.90;;;;;;4992778;28;20018;-72
2024/01/27 01:28:04;;;;;;;9.52;2.60;;;4.60;99.90;;;;;;4989667;28;20481;-73
2024/01/27 01:30:30;;;;;;;6.30;2.55;;;4.60;99.90;;;;;;4991362;28;20030;-72
2024/01/27 01:32:56;;;;;;;10.48;3.15;;;4.50;99.90;;;;;;4992065;28;20069;-72
2024/01/27 01:35:21;;;;;;;7.93;3.00;;;4.50;99.90;;;;;;4990992;28;20470;-73
2024/01/27 01:37:48;;;;;;;7.22;2.55;;;4.50;99.90;;;;;;4987370;28;20022;-72
2024/01/27 01:40:15;;;;;;;4.75;2.17;;;4.50;99.90;;;;;;4989616;28;20069;-73
2024/01/27 01:42:41;;;;;;;8.10;2.63;;;4.40;99.90;;;;;;4987019;28;20018;-73
2024/01/27 01:45:09;;;;;;;5.32;2.22;;;4.40;99.90;;;;;;4986079;28;20015;-73
2024/01/27 01:47:34;;;;;;;7.20;2.28;;;4.40;99.90;;;;;;4989126;28;20038;-72
2024/01/27 01:50:01;;;;;;;7.20;2.35;;;4.40;99.90;;;;;;4986534;28;20106;-73
2024/01/27 01:52:26;;;;;;;6.55;2.30;;;4.30;99.90;;;;;;4986800;28;20042;-73
2024/01/27 01:54:52;;;;;;;6.32;2.05;;;4.30;99.90;;;;;;4988513;28;20484;-73
2024/01/27 01:57:18;;;;;;;5.20;2.25;;;4.30;99.90;;;;;;4988177;28;20370;-72
2024/01/27 01:59:43;;;;;;;5.10;1.88;;;4.30;99.90;;;;;;4982893;28;20034;-72
2024/01/27 02:02:09;;;;;;;6.07;2.13;;;4.20;99.90;;;;;;4981216;28;20023;-72
2024/01/27 02:04:48;;;;;;;7.53;2.13;;;4.30;99.90;;;;;;4984767;28;20027;-72
2024/01/27 02:07:14;;;;;;;6.15;2.33;;;4.20;99.90;;;;;;4986591;28;20426;-71
2024/01/27 02:09:39;;;;;;;11.02;2.45;;;4.20;99.90;;;;;;4988995;28;20033;-72
2024/01/27 02:12:06;;;;;;;6.15;2.03;;;4.20;99.90;;;;;;4991544;28;20034;-71
2024/01/27 02:14:31;;;;;;;6.68;2.33;;;4.10;99.90;;;;;;4989356;28;20398;-71
2024/01/27 02:16:57;;;;;;;7.80;1.63;;;4.10;99.90;;;;;;4987647;28;20097;-71
2024/01/27 02:19:23;;;;;;;7.65;2.25;;;4.00;99.90;;;;;;4982178;28;20031;-72
2024/01/27 02:21:49;;;;;;;5.10;1.77;;;4.00;99.90;;;;;;4987561;28;20023;-72
2024/01/27 02:24:15;;;;;;;3.28;1.63;;;4.00;99.90;;;;;;4987981;28;20030;-71
2024/01/27 02:26:40;;;;;;;4.78;2.00;;;4.00;99.90;;;;;;4991669;28;20023;-71
2024/01/27 02:29:06;;;;;;;3.20;1.70;;;4.00;99.90;;;;;;4992493;28;20042;-72
2024/01/27 02:31:32;;;;;;;5.50;2.10;;;3.90;99.90;;;;;;4982513;28;20038;-74
2024/01/27 02:33:57;;;;;;;5.72;1.77;;;3.90;99.90;;;;;;5003541;28;20072;-72
2024/01/27 02:36:23;;;;;;;8.75;2.10;;;3.90;99.90;;;;;;4981374;28;20124;-73
2024/01/27 02:38:48;;;;;;;8.35;2.05;;;3.90;99.90;;;;;;4989083;28;20027;-72
2024/01/27 02:41:14;;;;;;;4.03;2.25;;;3.90;99.90;;;;;;4988705;28;20054;-73
2024/01/27 02:43:40;;;;;;;6.00;2.13;;;3.90;99.90;;;;;;4989367;28;20023;-73
2024/01/27 02:46:10;;;;;;;4.82;2.00;;;3.90;99.90;;;;;;4985083;28;20026;-73
2024/01/27 02:48:36;;;;;;;7.53;1.90;;;3.80;99.90;;;;;;4986537;28;20489;-73
2024/01/27 02:51:04;;;;;;;7.50;2.13;;;3.80;99.90;;;;;;4987084;28;20045;-73
2024/01/27 02:53:30;;;;;;;3.75;2.28;;;3.80;99.90;;;;;;5000791;28;20695;-73
2024/01/27 02:55:56;;;;;;;5.32;1.77;;;3.80;99.90;;;;;;4984583;28;20121;-73
2024/01/27 02:58:22;;;;;;;4.45;1.92;;;3.70;99.90;;;;;;4987026;28;20478;-73
2024/01/27 03:00:48;;;;;;;4.22;2.33;;;3.70;99.90;;;;;;4992180;28;20026;-74
2024/01/27 03:03:14;;;;;;;5.40;1.95;;;3.70;99.90;;;;;;4991887;28;20034;-73
2024/01/27 03:05:40;;;;;;;6.05;2.35;;;3.70;99.90;;;;;;4991863;28;20018;-74
2024/01/27 03:08:06;;;;;;;6.05;2.42;;;3.70;99.90;;;;;;4987010;28;20553;-74
2024/01/27 03:10:32;;;;;;;7.07;2.42;;;3.70;99.90;;;;;;4989277;28;20394;-74
2024/01/27 03:12:57;;;;;;;10.57;1.98;;;3.70;99.90;;;;;;4983801;28;20053;-75
2024/01/27 03:15:23;;;;;;;5.53;1.92;;;3.60;99.90;;;;;;4984740;28;20031;-73
2024/01/27 03:17:48;;;;;;;3.90;1.60;;;3.60;99.90;;;;;;4990701;28;20445;-74
2024/01/27 03:20:14;;;;;;;5.07;1.80;;;3.50;99.90;;;;;;4989284;28;20025;-74
2024/01/27 03:22:41;;;;;;;4.38;1.73;;;3.50;99.90;;;;;;4994565;28;20072;-73
2024/01/27 03:25:13;;;;;;;4.90;1.98;;;3.50;99.90;;;;;;4990578;28;20014;-74
2024/01/27 03:27:39;;;;;;;3.65;1.98;;;3.50;99.90;;;;;;4988247;28;20018;-74
2024/01/27 03:30:05;;;;;;;5.70;1.88;;;3.40;99.90;;;;;;4989211;28;20037;-74
2024/01/27 03:32:34;;;;;;;7.88;1.98;;;3.40;99.90;;;;;;4990253;28;20056;-73
2024/01/27 03:35:00;;;;;;;7.07;1.67;;;3.40;99.90;;;;;;4991001;28;20023;-74
2024/01/27 03:37:26;;;;;;;6.13;2.40;;;3.30;99.90;;;;;;4987010;28;20170;-74
2024/01/27 03:39:52;;;;;;;9.80;1.30;;;3.30;99.90;;;;;;4990020;28;20025;-73
2024/01/27 03:42:17;;;;;;;5.53;1.77;;;3.30;99.90;;;;;;4991829;28;20026;-73
2024/01/27 03:44:43;;;;;;;6.22;1.92;;;3.30;99.90;;;;;;4982852;28;20094;-73
2024/01/27 03:47:09;;;;;;;5.65;2.10;;;3.30;99.90;;;;;;4990643;28;20026;-74
2024/01/27 03:49:34;;;;;;;8.18;1.55;;;3.30;99.90;;;;;;4995012;28;20030;-74
2024/01/27 03:52:00;;;;;;;5.25;1.85;;;3.30;99.90;;;;;;4990737;28;20030;-73
2024/01/27 03:54:25;;;;;;;9.82;2.17;;;3.20;99.90;;;;;;4985888;28;20109;-74
2024/01/27 03:56:51;;;;;;;3.72;1.63;;;3.30;99.90;;;;;;4995029;28;20030;-74
2024/01/27 03:59:17;;;;;;;3.72;1.45;;;3.30;99.90;;;;;;4994684;28;20027;-73
2024/01/27 04:01:42;;;;;;;5.22;1.73;;;3.30;99.90;;;;;;4991184;28;20023;-74
2024/01/27 04:04:08;;;;;;;7.03;2.15;;;3.30;99.90;;;;;;4993292;28;20026;-73
2024/01/27 04:06:39;;;;;;;6.38;1.92;;;3.40;99.90;;;;;;4995200;28;20030;-74
2024/01/27 04:09:08;;;;;;;7.43;2.50;;;3.40;99.90;;;;;;4994725;28;20232;-74
2024/01/27 04:11:34;;;;;;;5.78;1.67;;;3.40;99.90;;;;;;4994422;28;20030;-73
2024/01/27 04:13:59;;;;;;;4.93;1.77;;;3.40;99.90;;;;;;4994325;28;20030;-74
2024/01/27 04:16:25;;;;;;;4.60;1.80;;;3.40;99.90;;;;;;4994371;28;20038;-74
2024/01/27 04:18:51;;;;;;;7.18;2.22;;;3.40;99.90;;;;;;4994386;28;20027;-74
2024/01/27 04:21:16;;;;;;;6.82;1.80;;;3.50;99.90;;;;;;4991274;28;20482;-73
2024/01/27 04:23:42;;;;;;;7.50;2.10;;;3.50;99.90;;;;;;4991301;28;20053;-74
2024/01/27 04:26:10;;;;;;;5.78;1.60;;;3.40;99.90;;;;;;4982705;28;20417;-73
2024/01/27 04:28:36;;;;;;;9.60;2.10;;;3.40;99.90;;;;;;4994099;28;20050;-73
2024/01/27 04:31:02;;;;;;;7.28;2.00;;;3.40;99.90;;;;;;4987696;28;20075;-74
2024/01/27 04:33:27;;;;;;;4.20;1.50;;;3.40;99.90;;;;;;4992120;28;20470;-73
2024/01/27 04:35:53;;;;;;;7.43;2.00;;;3.40;99.90;;;;;;4994003;28;20520;-72
2024/01/27 04:38:19;;;;;;;7.10;1.98;;;3.40;99.90;;;;;;4988185;28;20057;-73
2024/01/27 04:40:45;;;;;;;4.65;1.60;;;3.50;99.90;;;;;;4988972;28;20049;-72
2024/01/27 04:43:18;;;;;;;5.60;1.88;;;3.50;99.90;;;;;;4992749;28;20018;-73
2024/01/27 04:45:44;;;;;;;5.63;1.65;;;3.50;99.90;;;;;;4987878;28;20018;-73
2024/01/27 04:48:10;;;;;;;6.13;2.15;;;3.50;99.90;;;;;;4991096;28;20117;-72
2024/01/27 04:50:35;;;;;;;5.47;2.63;;;3.50;99.90;;;;;;4993100;28;20030;-72
2024/01/27 04:53:01;;;;;;;10.35;2.08;;;3.50;99.90;;;;;;4993235;28;20405;-74
2024/01/27 04:55:27;;;;;;;7.97;1.70;;;3.50;99.90;;;;;;4994084;28;20026;-74
2024/01/27 04:57:53;;;;;;;7.13;2.20;;;3.40;99.90;;;;;;4993700;28;20041;-74
2024/01/27 05:00:19;;;;;;;9.13;2.03;;;3.50;99.90;;;;;;4993868;28;20470;-73
2024/01/27 05:02:45;;;;;;;6.53;1.77;;;3.40;99.90;;;;;;4993969;28;20113;-74
2024/01/27 05:05:11;;;;;;;6.00;2.50;;;3.40;99.90;;;;;;4993723;28;20085;-74
2024/01/27 05:07:38;;;;;;;3.63;1.83;;;3.40;99.90;;;;;;4993446;28;20036;-74
2024/01/27 05:10:04;;;;;;;3.58;2.10;;;3.30;99.90;;;;;;4993690;28;20089;-74
2024/01/27 05:12:30;;;;;;;9.13;2.10;;;3.30;99.90;;;;;;4993776;28;20560;-74
2024/01/27 05:14:55;;;;;;;8.30;1.60;;;3.20;99.90;;;;;;4993228;28;20034;-74
2024/01/27 05:17:21;;;;;;;6.00;2.10;;;3.20;99.90;;;;;;4993197;28;20085;-73
2024/01/27 05:19:46;;;;;;;4.97;1.85;;;3.20;99.90;;;;;;4993441;28;20497;-73
2024/01/27 05:22:12;;;;;;;9.43;2.53;;;3.20;99.90;;;;;;4985851;28;20118;-73
2024/01/27 05:24:37;;;;;;;5.15;1.50;;;3.10;99.90;;;;;;4984730;28;20033;-73
2024/01/27 05:27:03;;;;;;;5.55;2.00;;;3.10;99.90;;;;;;4993124;28;20027;-73
2024/01/27 05:29:29;;;;;;;6.05;2.00;;;3.00;99.90;;;;;;4993260;28;20026;-72
2024/01/27 05:31:55;;;;;;;4.50;2.00;;;3.00;99.90;;;;;;4993246;28;20033;-73
2024/01/27 05:34:20;;;;;;;5.20;1.67;;;3.00;99.90;;;;;;4992825;28;20486;-73
2024/01/27 05:36:47;;;;;;;4.80;2.45;;;3.00;99.90;;;;;;4992526;28;20466;-73
2024/01/27 05:39:13;;;;;;;4.15;1.85;;;3.00;99.90;;;;;;4993033;28;20037;-73
2024/01/27 05:41:39;;;;;;;11.77;3.25;;;2.90;99.90;;;;;;4993037;28;20026;-72
2024/01/27 05:44:05;;;;;;;6.43;2.00;;;2.90;99.90;;;;;;4992501;28;20581;-73
2024/01/27 05:46:30;;;;;;;5.38;2.55;;;2.90;99.90;;;;;;4993269;28;20027;-73
2024/01/27 05:49:01;;;;;;;7.43;2.20;;;2.90;99.90;;;;;;4993148;28;20038;-73
2024/01/27 05:51:27;;;;;;;4.88;2.03;;;2.90;99.90;;;;;;4992978;28;20026;-73
2024/01/27 05:53:52;;;;;;;3.60;1.98;;;2.90;99.90;;;;;;4984963;28;20964;-73
2024/01/27 05:56:21;;;;;;;4.85;2.20;;;2.90;99.90;;;;;;4989483;28;20092;-73
2024/01/27 05:58:49;;;;;;;12.70;2.92;;;2.90;99.90;;;;;;4990667;28;20542;-73
2024/01/27 06:01:17;;;;;;;9.38;3.25;;;2.80;99.90;;;;;;4987994;28;20469;-73
2024/01/27 06:03:43;;;;;;;5.43;2.60;;;2.80;99.90;;;;;;4992688;28;20021;-73
2024/01/27 06:06:09;;;;;;;7.35;2.03;;;2.80;99.90;;;;;;4988443;28;20054;-73
2024/01/27 06:08:35;;;;;;;5.82;2.45;;;2.80;99.90;;;;;;4993787;28;20066;-74
2024/01/27 06:11:00;;;;;;;9.63;2.78;;;2.70;99.90;;;;;;4992282;28;20026;-73
2024/01/27 06:13:26;;;;;;;7.57;3.00;;;2.70;99.90;;;;;;4991918;28;20122;-73
2024/01/27 06:15:52;;;;;;;9.23;2.65;;;2.60;99.90;;;;;;4989636;28;20038;-73
2024/01/27 06:18:17;;;;;;;8.60;3.30;;;2.60;99.90;;;;;;4988886;28;20114;-72
2024/01/27 06:20:43;;;;;;;10.18;3.53;;;2.50;99.90;;;;;;4986899;28;20123;-72
2024/01/27 06:23:09;;;;;;;10.77;4.00;;;2.50;99.90;;;;;;4987662;28;20027;-73
2024/01/27 06:25:34;;;;;;;10.70;3.15;;;2.40;99.90;;;;;;4989589;28;20139;-73
2024/01/27 06:28:00;;;;;;;7.40;2.80;;;2.40;99.90;;;;;;4991617;28;20053;-73
2024/01/27 06:30:26;;;;;;;4.82;2.80;;;2.40;99.90;;;;;;4992847;28;20026;-73
2024/01/27 06:32:52;;;;;;;6.72;2.63;;;2.30;99.90;;;;;;4993476;28;20464;-73
2024/01/27 06:35:17;;;;;;;4.95;2.50;;;2.30;99.90;;;;;;4992965;28;20029;-73
2024/01/27 06:37:43;;;;;;;10.35;3.90;;;2.20;99.90;;;;;;4993291;28;20103;-74
2024/01/27 06:40:09;;;;;;;10.95;2.92;;;2.20;99.90;;;;;;4992210;28;20310;-73
2024/01/27 06:42:35;;;;;;;14.48;3.58;;;2.20;99.90;;;;;;4993363;28;20025;-73
2024/01/27 06:45:01;;;;;;;10.73;4.05;;;2.10;99.90;;;;;;4986837;28;20014;-72
2024/01/27 06:47:27;;;;;;;9.55;3.95;;;2.20;99.90;;;;;;4990688;28;20085;-73
2024/01/27 06:49:52;;;;;;;11.80;4.20;;;2.10;99.90;;;;;;4992428;28;20041;-73
2024/01/27 06:52:18;;;;;;;10.20;3.33;;;2.10;99.90;;;;;;4989010;28;20533;-72
2024/01/27 06:54:44;;;;;;;9.43;4.35;;;2.10;99.90;;;;;;4992971;28;20113;-74
2024/01/27 06:57:22;;;;;;;10.18;4.30;;;2.10;99.90;;;;;;4995757;28;20018;-73
2024/01/27 06:59:52;;;;;;;9.88;3.35;;;2.10;99.90;;;;;;4996247;28;20494;-72
2024/01/27 07:02:31;;;;;;;11.32;4.15;;;2.00;99.90;;;;;;4994161;28;20018;-72
2024/01/27 07:04:56;;;;;;;6.75;3.33;;;2.00;99.90;;;;;;4989347;28;20161;-72
2024/01/27 07:07:27;;;;;;;9.50;3.75;;;2.00;99.90;;;;;;4994333;28;20512;-72
2024/01/27 07:09:55;;;;;;;11.13;3.47;;;2.00;99.90;;;;;;4984572;28;20389;-72
2024/01/27 07:12:21;;;;;;;13.02;4.70;;;2.00;99.90;;;;;;4996782;28;20027;-72
2024/01/27 07:14:46;;;;;;;9.82;3.90;;;2.00;99.90;;;;;;4996892;28;20037;-72
2024/01/27 07:17:12;;;;;;;9.27;3.85;;;2.00;99.90;;;;;;4997346;28;20034;-72
2024/01/27 07:19:38;;;;;;;13.02;5.47;;;2.00;99.90;;;;;;4989690;28;20030;-71
2024/01/27 07:22:03;;;;;;;13.43;4.95;;;2.00;99.90;;;;;;4993711;28;20034;-72
2024/01/27 07:24:29;;;;;;;15.85;5.53;;;2.00;99.90;;;;;;4992472;28;20418;-72
2024/01/27 07:26:55;;;;;;;12.57;5.00;;;2.00;99.90;;;;;;4992016;28;20027;-71
2024/01/27 07:29:21;;;;;;;17.60;5.95;;;2.00;99.90;;;;;;4988974;28;20508;-72
2024/01/27 07:31:47;;;;;;;13.23;5.28;;;2.00;99.90;;;;;;4992668;28;20299;-72
2024/01/27 07:34:13;;;;;;;14.30;5.30;;;2.00;99.90;;;;;;4995613;28;20073;-72
2024/01/27 07:36:38;;;;;;;10.18;4.82;;;2.00;99.90;;;;;;4996365;28;20037;-73
2024/01/27 07:39:04;;;;;;;11.50;4.85;;;2.00;99.90;;;;;;4995264;28;20023;-72
2024/01/27 07:41:30;;;;;;;11.25;5.43;;;2.00;99.90;;;;;;4994971;28;20146;-72
2024/01/27 07:43:56;;;;;;;9.30;4.20;;;2.00;99.90;;;;;;4995220;28;20019;-71
2024/01/27 07:46:22;;;;;;;9.85;4.68;;;2.00;99.90;;;;;;4992995;28;20033;-70
2024/01/27 07:48:52;;;;;;;12.20;5.15;;;2.10;99.90;;;;;;4991421;28;20072;-71
2024/01/27 07:51:18;;;;;;;12.50;4.63;;;2.10;99.90;;;;;;4995100;28;20022;-70
2024/01/27 07:53:43;;;;;;;16.83;6.60;;;2.10;99.90;;;;;;4995266;28;20395;-72
2024/01/27 07:56:09;;;;;;;11.10;4.78;;;2.10;99.90;;;;;;4994469;28;20057;-72
2024/01/27 07:58:34;;;;;;;14.05;5.45;;;2.20;99.90;;;;;;4992667;28;20100;-71
2024/01/27 08:01:00;;;;;;;7.68;4.18;;;2.20;99.90;;;;;;4991074;28;20022;-72
2024/01/27 08:03:25;;;;;;;16.33;5.60;;;2.20;99.90;;;;;;4990024;28;20026;-73
2024/01/27 08:05:51;;;;;;;9.60;5.18;;;2.30;99.90;;;;;;4989572;28;20054;-72
2024/01/27 08:08:17;;;;;;;12.73;5.75;;;2.30;99.90;;;;;;4989708;28;20061;-72
2024/01/27 08:10:42;;;;;;;16.70;7.45;;;2.30;99.90;;;;;;4987017;28;20117;-70
2024/01/27 08:13:08;;;;;;;15.95;6.40;;;2.40;99.90;;;;;;4988087;28;20034;-72
2024/01/27 08:15:33;;;;;;;9.20;5.78;;;2.40;99.90;;;;;;4990275;28;20069;-71
2024/01/27 08:17:59;;;;;;;9.73;6.32;;;2.50;99.90;;;;;;4988660;28;20085;-72
2024/01/27 08:20:25;;;;;;;17.10;6.75;;;2.50;99.90;;;;;;4988785;28;20030;-72
2024/01/27 08:22:51;;;;;;;9.95;5.50;;;2.50;99.90;;;;;;4990446;28;20022;-72
2024/01/27 08:25:18;;;;;;;11.15;5.78;;;2.60;99.90;;;;;;4992300;28;20377;-72
2024/01/27 08:27:43;;;;;;;11.13;4.93;;;2.60;99.90;;;;;;4990553;28;20037;-71
2024/01/27 08:30:10;;;;;;;11.50;5.32;;;2.60;99.90;;;;;;4989296;28;20050;-72
2024/01/27 08:32:36;;;;;;;11.80;5.72;;;2.70;99.90;;;;;;4989867;28;20043;-71
2024/01/27 08:35:01;;;;;;;9.20;5.57;;;2.60;99.90;;;;;;4987560;28;20034;-72
2024/01/27 08:37:27;;;;;;;7.88;4.90;;;2.70;99.90;;;;;;4987878;28;20209;-72
2024/01/27 08:39:53;;;;;;;8.82;4.22;;;2.60;99.90;;;;;;4990943;28;20030;-71
2024/01/27 08:42:18;;;;;;;12.13;5.47;;;2.60;99.90;;;;;;4990354;28;20055;-71
2024/01/27 08:44:44;;;;;;;12.57;5.90;;;2.60;99.90;;;;;;4989376;28;20489;-71
2024/01/27 08:47:09;;;;;;;10.23;5.00;;;2.60;99.90;;;;;;4989616;28;20436;-73
2024/01/27 08:49:35;;;;;;;7.25;4.43;;;2.60;99.90;;;;;;4991995;28;20085;-72
2024/01/27 08:52:01;;;;;;;11.80;5.25;;;2.70;99.90;;;;;;4992778;28;20026;-72
2024/01/27 08:54:26;;;;;;;14.73;6.40;;;2.70;99.90;;;;;;4990630;28;20026;-72
2024/01/27 08:56:52;;;;;;;12.68;6.43;;;2.70;99.90;;;;;;4984181;28;20034;-72
2024/01/27 08:59:17;;;;;;;10.27;5.35;;;2.70;99.90;;;;;;4987017;28;20030;-72
2024/01/27 09:01:43;;;;;;;11.02;6.07;;;2.80;99.90;;;;;;4989610;28;20060;-72
2024/01/27 09:04:09;;;;;;;11.32;6.35;;;2.80;99.90;;;;;;4990943;28;20034;-71
2024/01/27 09:06:35;;;;;;;9.43;5.22;;;2.80;99.90;;;;;;4990731;28;20106;-72
2024/01/27 09:09:00;;;;;;;10.90;5.65;;;2.80;99.90;;;;;;4988737;28;20107;-72
2024/01/27 09:11:30;;;;;;;13.35;5.75;;;2.80;99.90;;;;;;4988823;28;20033;-72
2024/01/27 09:13:56;;;;;;;9.75;5.82;;;2.80;99.90;;;;;;4987729;28;20030;-71
2024/01/27 09:16:22;;;;;;;12.02;6.93;;;2.70;99.90;;;;;;4987436;28;20498;-72
2024/01/27 09:18:50;;;;;;;12.85;6.40;;;2.70;99.90;;;;;;4989409;28;20049;-71
2024/01/27 09:21:20;;;;;;;13.60;6.90;;;2.70;99.90;;;;;;4990661;28;20422;-72
2024/01/27 09:23:47;;;;;;;13.68;7.13;;;2.70;99.90;;;;;;4990234;28;20485;-72
2024/01/27 09:26:13;;;;;;;14.77;8.50;;;2.70;99.90;;;;;;4988854;28;20034;-72
2024/01/27 09:28:43;;;;;;;17.40;10.00;;;2.60;99.90;;;;;;4990219;28;20450;-71
2024/01/27 09:31:10;;;;;;;14.13;8.05;;;2.60;99.90;;;;;;4990379;28;20085;-72
2024/01/27 09:33:36;;;;;;;10.43;6.65;;;2.60;99.90;;;;;;4990965;28;20088;-72
2024/01/27 09:36:01;;;;;;;13.40;7.38;;;2.60;99.90;;;;;;4988795;28;20034;-72
2024/01/27 09:38:28;;;;;;;14.75;7.70;;;2.60;99.90;;;;;;4991253;28;20030;-72
2024/01/27 09:40:53;;;;;;;12.50;7.07;;;2.70;99.90;;;;;;4989268;28;20030;-72
2024/01/27 09:43:20;;;;;;;11.48;7.22;;;2.80;99.90;;;;;;4983440;28;20073;-71
2024/01/27 09:45:46;;;;;;;13.52;7.43;;;2.80;99.90;;;;;;4989194;28;20022;-72
2024/01/27 09:48:12;;;;;;;12.52;8.10;;;2.90;99.90;;;;;;4988891;28;20038;-72
2024/01/27 09:50:41;;;;;;;11.20;6.95;;;2.90;99.90;;;;;;4989537;28;20488;-72
2024/01/27 09:53:08;;;;;;;9.85;5.93;;;2.90;99.90;;;;;;4985854;28;20219;-72
2024/01/27 09:55:34;;;;;;;13.45;6.55;;;3.00;99.90;;;;;;4987217;28;20023;-71
2024/01/27 09:58:01;;;;;;;11.73;6.20;;;2.90;99.90;;;;;;4986243;28;20073;-72
2024/01/27 10:00:27;;;;;;;15.02;6.40;;;2.90;99.90;;;;;;4990573;28;20033;-72
2024/01/27 10:02:55;;;;;;;11.13;6.38;;;2.90;99.90;;;;;;4989332;28;20030;-73
2024/01/27 10:05:22;;;;;;;9.25;5.78;;;2.80;99.90;;;;;;4987043;28;20042;-71
2024/01/27 10:07:48;;;;;;;15.38;5.82;;;2.80;99.90;;;;;;4989702;28;20038;-72
2024/01/27 10:10:13;;;;;;;11.27;7.03;;;2.80;99.90;;;;;;4989997;28;20053;-72
2024/01/27 10:12:42;;;;;;;14.38;7.43;;;2.90;99.90;;;;;;5005350;28;20054;-72
2024/01/27 10:15:22;;;;;;;12.18;6.82;;;2.80;99.90;;;;;;4988708;28;20429;-72
2024/01/27 10:17:47;;;;;;;10.38;6.00;;;2.70;99.90;;;;;;4989204;28;20026;-71
2024/01/27 10:20:15;;;;;;;11.63;6.10;;;2.80;99.90;;;;;;4989344;28;20034;-72
2024/01/27 10:22:42;;;;;;;12.38;7.30;;;2.80;99.90;;;;;;4989114;28;21453;-71
2024/01/27 10:25:09;;;;;;;9.90;6.03;;;2.90;99.90;;;;;;4988783;28;20025;-72
2024/01/27 10:27:35;;;;;;;11.65;6.40;;;2.80;99.90;;;;;;4989915;28;20018;-72
2024/01/27 10:30:02;;;;;;;10.70;6.18;;;2.80;99.90;;;;;;4987887;28;20401;-73
2024/01/27 10:32:27;;;;;;;10.40;6.25;;;2.80;99.90;;;;;;4987636;28;20054;-72
2024/01/27 10:35:11;;;;;;;12.85;7.50;;;2.80;99.90;;;;;;4987343;28;20057;-72
2024/01/27 10:37:38;;;;;;;11.32;6.43;;;2.90;99.90;;;;;;4990121;28;20022;-74
2024/01/27 10:40:08;;;;;;;11.07;6.68;;;2.90;99.90;;;;;;4989348;28;20035;-73
2024/01/27 10:42:35;;;;;;;10.95;6.32;;;3.00;99.90;;;;;;4988240;28;20090;-71
2024/01/27 10:45:02;;;;;;;12.52;5.75;;;3.10;99.90;;;;;;4989688;28;20084;-72
2024/01/27 10:47:29;;;;;;;12.45;6.57;;;3.10;99.90;;;;;;4986565;28;20022;-72
2024/01/27 10:49:57;;;;;;;20.25;6.95;;;3.20;99.90;;;;;;4988031;28;20370;-72
2024/01/27 10:52:28;;;;;;;10.73;5.97;;;3.20;99.90;;;;;;4986417;28;20235;-71
2024/01/27 10:54:58;;;;;;;10.15;5.22;;;3.20;99.90;;;;;;4986888;28;20100;-72
2024/01/27 10:57:25;;;;;;;8.93;5.88;;;3.30;99.90;;;;;;4988930;28;20022;-72
2024/01/27 10:59:53;;;;;;;10.90;5.68;;;3.30;99.90;;;;;;4986496;28;20030;-72
2024/01/27 11:02:20;;;;;;;9.98;5.75;;;3.40;99.90;;;;;;4988324;28;20275;-72
2024/01/27 11:04:49;;;;;;;9.43;5.63;;;3.40;99.90;;;;;;4987946;28;20026;-72
2024/01/27 11:07:15;;;;;;;9.90;6.55;;;3.40;99.90;;;;;;4984003;28;20026;-72
2024/01/27 11:09:42;;;;;;;12.52;5.80;;;3.50;99.90;;;;;;4988238;28;20032;-71
2024/01/27 11:12:09;;;;;;;11.23;6.18;;;3.60;99.90;;;;;;4989311;28;20470;-72
2024/01/27 11:14:35;;;;;;;10.93;6.30;;;3.60;99.90;;;;;;4984212;28;20444;-72
2024/01/27 11:17:02;;;;;;;12.05;6.18;;;3.60;99.90;;;;;;4988764;28;20030;-72
2024/01/27 11:19:27;;;;;;;14.25;6.00;;;3.70;99.90;;;;;;4990136;28;20022;-72
2024/01/27 11:22:03;;;;;;;10.07;6.10;;;3.70;99.90;;;;;;4988645;28;20100;-72
2024/01/27 11:24:29;;;;;;;9.90;6.47;;;3.80;99.90;;;;;;4986749;28;20034;-72
2024/01/27 11:27:05;;;;;;;12.40;7.25;;;3.80;99.90;;;;;;4988143;28;20085;-72
2024/01/27 11:29:34;;;;;;;13.57;6.30;;;3.90;99.90;;;;;;4985236;28;20027;-72
2024/01/27 11:32:02;;;;;;;14.15;6.60;;;3.90;99.90;;;;;;4986980;28;20053;-72
2024/01/27 11:34:28;;;;;;;13.10;6.78;;;4.00;99.90;;;;;;4987835;28;20029;-72
2024/01/27 11:36:53;;;;;;;13.77;6.88;;;4.10;99.90;;;;;;4986233;28;20038;-72
2024/01/27 11:39:37;;;;;;;17.80;7.03;;;4.10;99.90;;;;;;4986320;28;20026;-72
2024/01/27 11:42:06;;;;;;;;;;;4.20;99.90;;;;;;4988018;28;20025;-72
2024/01/27 11:44:36;;;;;;;12.95;6.65;;;4.20;99.90;;;;;;4992455;28;19936;-72
2024/01/27 11:47:02;;;;;;;17.67;6.82;;;4.20;99.90;;;;;;4992168;28;20033;-72
2024/01/27 11:49:28;;;;;;;10.63;6.45;;;4.30;99.90;;;;;;5003540;28;20034;-72
2024/01/27 11:51:54;;;;;;;12.77;6.93;;;4.30;99.90;;;;;;4989986;28;20404;-72
2024/01/27 11:54:19;;;;;;;13.88;7.80;;;4.40;99.90;;;;;;4990454;28;20446;-74
2024/01/27 11:56:46;;;;;;;13.98;6.75;;;4.40;99.90;;;;;;4990326;28;20057;-71
2024/01/27 11:59:11;;;;;;;11.35;5.93;;;4.40;99.90;;;;;;4988042;28;20033;-71
2024/01/27 12:01:38;;;;;;;11.48;6.85;;;4.40;99.90;;;;;;4988054;28;20385;-72
2024/01/27 12:04:07;;;;;;;18.58;7.80;;;4.40;99.90;;;;;;4992462;28;20030;-72
2024/01/27 12:06:33;;;;;;;17.55;7.25;;;4.50;99.90;;;;;;4989760;28;20018;-72
2024/01/27 12:08:59;;;;;;;15.70;6.43;;;4.50;99.90;;;;;;4988655;28;20027;-72
2024/01/27 12:11:27;;;;;;;14.57;7.35;;;4.50;99.90;;;;;;4988792;28;20038;-72
2024/01/27 12:13:53;;;;;;;16.02;9.02;;;4.60;99.90;;;;;;4987723;28;20562;-72
2024/01/27 12:16:21;;;;;;;13.38;6.68;;;4.60;99.90;;;;;;4986236;28;20030;-72
2024/01/27 12:18:47;;;;;;;14.07;7.35;;;4.60;99.90;;;;;;5002610;28;20038;-72
2024/01/27 12:21:12;;;;;;;15.88;8.77;;;4.70;99.90;;;;;;4988187;28;20030;-72
2024/01/27 12:23:51;;;;;;;14.27;8.63;;;4.70;99.90;;;;;;4984748;28;20039;-72
2024/01/27 12:26:17;;;;;;;16.05;9.00;;;4.70;99.90;;;;;;4985345;28;20022;-73
2024/01/27 12:28:47;;;;;;;18.95;9.07;;;4.80;99.90;;;;;;4992009;28;20453;-72
2024/01/27 12:31:14;;;;;;;15.77;8.02;;;4.80;99.90;;;;;;4986518;28;20397;-72
2024/01/27 12:33:42;;;;;;;16.02;9.65;;;4.90;99.90;;;;;;4990720;28;20034;-73
2024/01/27 12:36:08;;;;;;;15.52;7.55;;;4.90;99.90;;;;;;4989507;28;20027;-72
2024/01/27 12:38:33;;;;;;;18.83;8.55;;;4.90;99.90;;;;;;4991361;28;20039;-72
2024/01/27 12:40:59;;;;;;;14.05;8.07;;;5.00;99.90;;;;;;4987707;28;20050;-72
2024/01/27 12:43:24;;;;;;;13.80;7.85;;;5.00;99.90;;;;;;4989666;28;20027;-72
2024/01/27 12:45:50;;;;;;;17.63;7.85;;;5.10;99.90;;;;;;4991445;28;20034;-72
2024/01/27 12:48:16;;;;;;;15.40;8.45;;;5.10;99.90;;;;;;4985344;28;20528;-72